New Hartford, Iowa
Current Conditions -  °F | °C
As of 12:54 AM on Monday 24 Nov 2014 (Local Time) from KALO Reporting Station
Light Snow Light Snow  
Wind Chill: 20°   Ceiling: 800
Heat Index: 32°   Visibility: 1.2mi
Dew Point: 31°   Wind: 20mph
Humidity: 96%   Direction: 300°WNW
Pressure: 29.26"   Gusts: 30mph
Location:  42.57°N, 92.62°W
Report Text: KALO 240654Z AUTO 30017G26KT 1 1/4SM -SN BR BKN008 BKN015 OVC021 00/M01 A2926 RMK AO2 PK WND 32032/0612 RAE21SNB21 SLP913 P0008 T00001006 $
Loading
Personal Weather Stations






























Interactive Weather Map New forecast layout! Learn more

10-Day Weather Forecast

Advertisements
Track Severe Weather on mobile